createdAt,value
2022-09-04T00:00:15.890Z,3.90
2022-09-04T00:02:53.622Z,4.80
2022-09-04T00:05:45.922Z,4.35
2022-09-04T00:08:21.618Z,4.55
2022-09-04T00:11:08.465Z,4.65
2022-09-04T00:13:42.916Z,6.03
2022-09-04T00:16:24.482Z,4.15
2022-09-04T00:19:00.415Z,4.75
2022-09-04T00:21:26.896Z,4.15
2022-09-04T00:24:03.580Z,4.05
2022-09-04T00:26:40.034Z,4.13
2022-09-04T00:29:17.411Z,4.13
2022-09-04T00:32:08.966Z,4.57
2022-09-04T00:34:49.724Z,4.30
2022-09-04T00:37:21.494Z,4.15
2022-09-04T00:40:21.666Z,4.68
2022-09-04T00:42:48.168Z,4.22
2022-09-04T00:46:08.307Z,4.45
2022-09-04T00:49:06.418Z,5.15
2022-09-04T00:51:45.085Z,5.40
2022-09-04T00:54:17.563Z,3.85
2022-09-04T00:56:59.310Z,4.25
2022-09-04T00:59:53.796Z,3.55
2022-09-04T01:02:54.305Z,4.25
2022-09-04T01:05:47.008Z,4.10
2022-09-04T01:08:40.844Z,3.50
2022-09-04T01:11:48.041Z,3.50
2022-09-04T01:14:30.100Z,3.50
2022-09-04T01:17:15.456Z,3.33
2022-09-04T01:20:24.277Z,2.83
2022-09-04T01:23:22.071Z,3.25
2022-09-04T01:26:22.779Z,3.00
2022-09-04T01:29:23.877Z,3.22
2022-09-04T01:32:35.066Z,3.50
2022-09-04T01:35:32.937Z,3.17
2022-09-04T01:38:02.796Z,2.78
2022-09-04T01:40:35.931Z,3.00
2022-09-04T01:43:17.641Z,3.35
2022-09-04T01:46:12.656Z,3.20
2022-09-04T01:48:45.898Z,3.08
2022-09-04T01:51:23.215Z,2.63
2022-09-04T01:53:58.868Z,3.40
2022-09-04T01:56:33.359Z,4.00
2022-09-04T01:59:19.856Z,3.03
2022-09-04T02:01:48.517Z,2.78
2022-09-04T02:04:41.425Z,3.67
2022-09-04T02:07:46.782Z,3.53
2022-09-04T02:10:39.058Z,3.78
2022-09-04T02:13:08.699Z,3.65
2022-09-04T02:15:49.370Z,4.13
2022-09-04T02:18:31.494Z,4.82
2022-09-04T02:21:13.287Z,3.65
2022-09-04T02:23:51.911Z,4.30
2022-09-04T02:26:24.581Z,4.35
2022-09-04T02:29:06.459Z,4.35
2022-09-04T02:32:27.260Z,4.40
2022-09-04T02:35:34.605Z,5.32
2022-09-04T02:38:19.988Z,4.32
2022-09-04T02:40:50.225Z,3.90
2022-09-04T02:43:42.840Z,3.92
2022-09-04T02:46:18.167Z,4.13
2022-09-04T02:48:53.680Z,4.68
2022-09-04T02:51:38.772Z,4.68
2022-09-04T02:54:19.656Z,4.32
2022-09-04T02:57:09.355Z,4.55
2022-09-04T03:00:18.373Z,4.47
2022-09-04T03:03:01.407Z,5.03
2022-09-04T03:05:36.745Z,4.85
2022-09-04T03:08:07.104Z,4.45
2022-09-04T03:10:39.692Z,4.80
2022-09-04T03:13:37.174Z,5.28
2022-09-04T03:16:18.061Z,4.72
2022-09-04T03:19:10.055Z,5.50
2022-09-04T03:21:43.697Z,4.95
2022-09-04T03:24:36.218Z,6.18
2022-09-04T03:27:06.919Z,7.40
2022-09-04T03:30:01.389Z,8.10
2022-09-04T03:32:57.252Z,8.35
2022-09-04T03:35:42.927Z,11.25
2022-09-04T03:38:34.123Z,7.43
2022-09-04T03:41:19.926Z,8.93
2022-09-04T03:44:01.539Z,12.68
2022-09-04T03:46:50.251Z,10.77
2022-09-04T03:49:37.478Z,12.30
2022-09-04T03:52:17.561Z,13.07
2022-09-04T03:55:07.533Z,11.98
2022-09-04T03:57:49.392Z,14.55
2022-09-04T04:00:19.973Z,17.75
2022-09-04T04:03:31.876Z,11.25
2022-09-04T04:06:10.477Z,11.93
2022-09-04T04:09:14.940Z,16.83
2022-09-04T04:11:54.842Z,11.68
2022-09-04T04:14:27.377Z,15.43
2022-09-04T04:17:04.636Z,12.75
2022-09-04T04:20:11.519Z,11.73
2022-09-04T04:22:52.131Z,15.32
2022-09-04T04:25:25.262Z,14.80
2022-09-04T04:28:12.594Z,14.75
2022-09-04T04:30:46.975Z,14.45
2022-09-04T04:33:32.559Z,14.77
2022-09-04T04:36:15.504Z,12.70
2022-09-04T04:39:09.857Z,13.55
2022-09-04T04:42:08.139Z,21.42
2022-09-04T04:45:08.609Z,15.32
2022-09-04T04:47:57.254Z,19.30
2022-09-04T04:50:42.604Z,41.72
2022-09-04T04:53:19.882Z,58.10
2022-09-04T04:56:24.631Z,21.10
2022-09-04T04:59:19.198Z,13.95
2022-09-04T05:02:21.468Z,17.98
2022-09-04T05:05:15.719Z,23.45
2022-09-04T05:08:08.048Z,36.70
2022-09-04T05:10:36.906Z,29.42
2022-09-04T05:13:33.132Z,17.52
2022-09-04T05:16:10.242Z,46.88
2022-09-04T05:19:07.175Z,36.72
2022-09-04T05:21:49.454Z,34.40
2022-09-04T05:24:34.669Z,25.85
2022-09-04T05:27:07.599Z,35.25
2022-09-04T05:29:52.555Z,38.00
2022-09-04T05:32:27.508Z,81.57
2022-09-04T05:35:03.337Z,61.13
2022-09-04T05:37:40.602Z,37.85
2022-09-04T05:40:44.231Z,60.63
2022-09-04T05:43:16.828Z,79.97
2022-09-04T05:45:49.607Z,30.67
2022-09-04T05:48:34.462Z,25.17
2022-09-04T05:51:07.819Z,63.70
2022-09-04T05:54:19.893Z,19.73
2022-09-04T05:57:15.829Z,34.17
2022-09-04T05:59:45.512Z,38.22
2022-09-04T06:02:42.684Z,16.23
2022-09-04T06:05:41.965Z,63.75
2022-09-04T06:08:46.375Z,16.92
2022-09-04T06:11:40.864Z,22.08
2022-09-04T06:14:10.367Z,13.98
2022-09-04T06:17:07.691Z,41.45
2022-09-04T06:20:16.474Z,38.40
2022-09-04T06:23:07.791Z,50.08
2022-09-04T06:26:00.048Z,16.38
2022-09-04T06:28:53.514Z,22.13
2022-09-04T06:31:20.047Z,31.48
2022-09-04T06:33:59.185Z,48.85
2022-09-04T06:36:50.840Z,40.03
2022-09-04T06:39:45.516Z,28.83
2022-09-04T06:42:30.894Z,31.13
2022-09-04T06:45:06.509Z,36.15
2022-09-04T06:47:35.897Z,46.17
2022-09-04T06:50:42.116Z,32.10
2022-09-04T06:53:34.664Z,30.23
2022-09-04T06:56:34.272Z,26.80
2022-09-04T06:59:33.284Z,29.35
2022-09-04T07:02:18.420Z,29.77
2022-09-04T07:05:20.408Z,40.03
2022-09-04T07:08:04.444Z,32.20
2022-09-04T07:10:34.136Z,40.08
2022-09-04T07:13:25.110Z,33.08
2022-09-04T07:16:09.439Z,30.17
2022-09-04T07:18:48.352Z,22.63
2022-09-04T07:21:33.594Z,40.28
2022-09-04T07:24:04.368Z,31.63
2022-09-04T07:26:39.954Z,22.60
2022-09-04T07:29:29.658Z,25.08
2022-09-04T07:32:13.715Z,24.17
2022-09-04T07:35:01.559Z,20.42
2022-09-04T07:37:58.619Z,18.10
2022-09-04T07:40:31.486Z,18.40
2022-09-04T07:43:21.395Z,17.63
2022-09-04T07:45:56.997Z,20.05
2022-09-04T07:48:40.034Z,21.48
2022-09-04T07:51:12.243Z,19.92
2022-09-04T07:54:05.477Z,15.68
2022-09-04T07:56:49.365Z,17.73
2022-09-04T07:59:24.274Z,16.02
2022-09-04T08:02:43.830Z,15.48
2022-09-04T08:05:25.737Z,16.42
2022-09-04T08:08:11.212Z,15.65
2022-09-04T08:10:49.472Z,17.35
2022-09-04T08:13:37.452Z,15.25
2022-09-04T08:16:21.412Z,16.63
2022-09-04T08:18:54.445Z,14.93
2022-09-04T08:21:30.396Z,17.02
2022-09-04T08:24:56.960Z,14.70
2022-09-04T08:27:30.188Z,14.90
2022-09-04T08:30:04.638Z,14.05
2022-09-04T08:32:53.138Z,14.98
2022-09-04T08:35:48.371Z,15.15
2022-09-04T08:38:35.761Z,15.25
2022-09-04T08:41:30.015Z,15.50
2022-09-04T08:44:28.947Z,14.57
2022-09-04T08:47:34.952Z,16.42
2022-09-04T08:50:23.930Z,15.07
2022-09-04T08:53:35.563Z,14.75
2022-09-04T08:56:21.653Z,14.88
2022-09-04T08:59:17.903Z,14.18
2022-09-04T09:02:10.426Z,13.25
2022-09-04T09:05:25.955Z,13.15
2022-09-04T09:08:06.589Z,10.77
2022-09-04T09:10:38.899Z,11.25
2022-09-04T09:13:47.273Z,13.13
2022-09-04T09:16:21.663Z,11.63
2022-09-04T09:19:13.590Z,10.77
2022-09-04T09:22:06.514Z,10.13
2022-09-04T09:25:00.869Z,10.82
2022-09-04T09:28:14.663Z,10.07
2022-09-04T09:31:13.190Z,10.20
2022-09-04T09:34:14.080Z,10.77
2022-09-04T09:37:10.059Z,10.15
2022-09-04T09:39:50.858Z,9.05
2022-09-04T09:42:39.359Z,7.65
2022-09-04T09:45:37.191Z,7.45
2022-09-04T09:48:31.715Z,8.15
2022-09-04T09:51:20.358Z,9.07
2022-09-04T09:54:00.199Z,8.60
2022-09-04T09:56:51.770Z,8.25
2022-09-04T09:59:51.731Z,7.68
2022-09-04T10:02:56.654Z,6.75
2022-09-04T10:05:52.837Z,6.95
2022-09-04T10:08:42.532Z,7.03
2022-09-04T10:11:27.633Z,6.05
2022-09-04T10:14:04.443Z,6.30
2022-09-04T10:16:46.372Z,5.65
2022-09-04T10:19:39.072Z,5.43
2022-09-04T10:22:25.385Z,4.78
2022-09-04T10:25:24.227Z,4.50
2022-09-04T10:28:08.925Z,4.40
2022-09-04T10:31:15.500Z,5.07
2022-09-04T10:34:07.791Z,5.25
2022-09-04T10:36:54.199Z,5.45
2022-09-04T10:39:51.971Z,4.55
2022-09-04T10:42:32.965Z,4.60
2022-09-04T10:45:23.598Z,3.50
2022-09-04T10:48:26.557Z,3.45
2022-09-04T10:51:08.417Z,3.28
2022-09-04T10:53:41.725Z,3.35
2022-09-04T10:56:13.637Z,3.45
2022-09-04T10:59:04.919Z,3.10
2022-09-04T11:01:37.305Z,2.97
2022-09-04T11:04:13.365Z,2.90
2022-09-04T11:06:58.529Z,3.10
2022-09-04T11:09:45.287Z,3.22
2022-09-04T11:12:28.806Z,2.60
2022-09-04T11:15:26.812Z,2.67
2022-09-04T11:18:17.743Z,2.70
2022-09-04T11:21:13.762Z,2.78
2022-09-04T11:24:01.439Z,3.25
2022-09-04T11:26:57.453Z,2.70
2022-09-04T11:29:42.696Z,2.70
2022-09-04T11:32:40.341Z,4.63
2022-09-04T11:35:25.920Z,2.88
2022-09-04T11:37:59.607Z,2.60
2022-09-04T11:40:55.765Z,2.97
2022-09-04T11:43:37.457Z,3.28
2022-09-04T11:46:05.284Z,2.88
2022-09-04T11:48:44.043Z,3.63
2022-09-04T11:51:45.228Z,2.60
2022-09-04T11:54:33.419Z,2.78
2022-09-04T11:57:20.645Z,3.15
2022-09-04T12:00:08.109Z,3.63
2022-09-04T12:02:50.800Z,2.50
2022-09-04T12:05:39.295Z,2.10
2022-09-04T12:08:14.957Z,2.50
2022-09-04T12:11:23.544Z,3.90
2022-09-04T12:13:59.224Z,2.22
2022-09-04T12:16:59.660Z,3.38
2022-09-04T12:19:42.569Z,2.22
2022-09-04T12:22:26.131Z,2.20
2022-09-04T12:25:30.381Z,2.55
2022-09-04T12:28:09.249Z,2.33
2022-09-04T12:30:54.625Z,3.70
2022-09-04T12:33:58.229Z,2.63
2022-09-04T12:36:59.420Z,1.90
2022-09-04T12:40:03.542Z,2.10
2022-09-04T12:42:33.770Z,2.10
2022-09-04T12:45:06.552Z,2.10
2022-09-04T12:47:45.860Z,2.45
2022-09-04T12:50:18.646Z,2.28
2022-09-04T12:52:52.575Z,2.17
2022-09-04T12:55:25.635Z,3.28
2022-09-04T12:58:17.831Z,3.17
2022-09-04T13:01:21.732Z,2.08
2022-09-04T13:04:11.607Z,2.45
2022-09-04T13:06:42.332Z,2.08
2022-09-04T13:09:17.902Z,2.25
2022-09-04T13:11:47.497Z,2.80
2022-09-04T13:14:32.479Z,2.03
2022-09-04T13:17:04.144Z,2.72
2022-09-04T13:20:12.494Z,2.95
2022-09-04T13:23:10.992Z,2.53
2022-09-04T13:26:02.159Z,2.40
2022-09-04T13:29:02.839Z,3.10
2022-09-04T13:31:43.326Z,1.83
2022-09-04T13:34:13.470Z,2.20
2022-09-04T13:37:23.881Z,2.00
2022-09-04T13:40:15.141Z,2.15
2022-09-04T13:42:42.603Z,2.45
2022-09-04T13:45:27.108Z,2.55
2022-09-04T13:48:26.533Z,2.17
2022-09-04T13:50:57.361Z,1.98
2022-09-04T13:53:24.191Z,1.83
2022-09-04T13:55:57.661Z,2.25
2022-09-04T13:58:28.414Z,2.15
2022-09-04T14:00:59.340Z,2.17
2022-09-04T14:03:50.880Z,2.17
2022-09-04T14:06:22.584Z,2.90
2022-09-04T14:08:59.680Z,2.00
2022-09-04T14:11:44.531Z,2.63
2022-09-04T14:14:13.940Z,2.50
2022-09-04T14:16:43.891Z,1.83
2022-09-04T14:19:32.622Z,2.17
2022-09-04T14:22:07.152Z,2.03
2022-09-04T14:25:06.765Z,2.03
2022-09-04T14:28:08.292Z,2.20
2022-09-04T14:30:54.645Z,1.58
2022-09-04T14:33:28.955Z,1.65
2022-09-04T14:36:56.391Z,2.13
2022-09-04T14:39:27.508Z,1.92
2022-09-04T14:42:13.201Z,2.47
2022-09-04T14:45:18.219Z,3.03
2022-09-04T14:47:55.012Z,2.42
2022-09-04T14:50:30.311Z,2.83
2022-09-04T14:53:05.397Z,2.25
2022-09-04T14:55:40.516Z,2.60
2022-09-04T14:58:25.368Z,1.45
2022-09-04T15:01:03.064Z,1.75
2022-09-04T15:03:55.473Z,1.75
2022-09-04T15:06:49.165Z,1.83
2022-09-04T15:09:28.344Z,1.80
2022-09-04T15:12:20.882Z,1.75
2022-09-04T15:14:46.011Z,1.73
2022-09-04T15:17:24.341Z,1.85
2022-09-04T15:20:00.221Z,2.00
2022-09-04T15:22:43.702Z,1.67
2022-09-04T15:25:58.799Z,1.80
2022-09-04T15:28:38.566Z,1.60
2022-09-04T15:31:16.332Z,1.70
2022-09-04T15:33:44.660Z,3.17
2022-09-04T15:36:31.609Z,2.00
2022-09-04T15:39:00.480Z,1.80
2022-09-04T15:41:37.377Z,1.85
2022-09-04T15:44:13.104Z,2.13
2022-09-04T15:47:03.060Z,1.50
2022-09-04T15:49:38.785Z,1.65
2022-09-04T15:52:38.593Z,1.60
2022-09-04T15:55:31.615Z,1.75
2022-09-04T15:58:19.991Z,1.63
2022-09-04T16:01:06.392Z,2.03
2022-09-04T16:03:47.516Z,2.33
2022-09-04T16:06:32.374Z,1.73
2022-09-04T16:09:07.889Z,1.80
2022-09-04T16:11:38.575Z,1.80
2022-09-04T16:14:06.549Z,2.10
2022-09-04T16:16:44.676Z,1.67
2022-09-04T16:19:32.060Z,3.25
2022-09-04T16:22:16.919Z,1.63
2022-09-04T16:24:46.679Z,1.83
2022-09-04T16:27:21.263Z,1.95
2022-09-04T16:29:51.131Z,1.55
2022-09-04T16:32:23.260Z,1.33
2022-09-04T16:34:51.406Z,1.42
2022-09-04T16:37:38.922Z,2.05
2022-09-04T16:40:14.032Z,1.63
2022-09-04T16:43:22.175Z,1.80
2022-09-04T16:45:54.843Z,1.60
2022-09-04T16:48:43.280Z,1.67
2022-09-04T16:51:39.172Z,1.63
2022-09-04T16:54:08.149Z,1.65
2022-09-04T16:56:45.556Z,2.50
2022-09-04T16:59:36.342Z,2.35
2022-09-04T17:02:11.441Z,1.92
2022-09-04T17:04:44.713Z,1.52
2022-09-04T17:07:18.748Z,1.67
2022-09-04T17:09:45.362Z,1.60
2022-09-04T17:12:58.276Z,2.47
2022-09-04T17:15:40.267Z,1.70
2022-09-04T17:18:23.237Z,2.03
2022-09-04T17:25:51.215Z,2.20
2022-09-04T17:28:54.429Z,1.92
2022-09-04T17:29:16.665Z,2.30
2022-09-04T17:29:48.072Z,2.38
2022-09-04T17:32:43.007Z,2.10
2022-09-04T17:40:38.423Z,2.20
2022-09-04T17:40:47.635Z,2.40
2022-09-04T17:41:50.664Z,2.47
2022-09-04T17:44:25.359Z,2.70
2022-09-04T17:47:28.414Z,2.65
2022-09-04T17:50:01.175Z,1.92
2022-09-04T17:52:34.185Z,2.08
2022-09-04T17:55:12.187Z,2.15
2022-09-04T17:57:57.492Z,2.10
2022-09-04T18:00:30.116Z,1.95
2022-09-04T18:03:24.074Z,1.80
2022-09-04T18:06:03.649Z,1.73
2022-09-04T18:08:37.947Z,2.15
2022-09-04T18:11:19.231Z,2.25
2022-09-04T18:14:03.977Z,2.70
2022-09-04T18:16:36.664Z,2.33
2022-09-04T18:19:29.545Z,2.50
2022-09-04T18:22:25.209Z,3.00
2022-09-04T18:25:30.823Z,2.67
2022-09-04T18:28:12.148Z,2.78
2022-09-04T18:37:07.505Z,2.17
2022-09-04T18:37:18.000Z,4.10
2022-09-04T18:37:24.546Z,2.15
2022-09-04T18:39:51.033Z,2.72
2022-09-04T18:50:33.315Z,2.88
2022-09-04T18:50:36.798Z,3.40
2022-09-04T18:50:45.517Z,3.38
2022-09-04T18:51:30.489Z,3.15
2022-09-04T18:54:28.358Z,3.78
2022-09-04T18:57:01.109Z,2.50
2022-09-04T18:59:36.836Z,2.67
2022-09-04T19:02:16.245Z,3.78
2022-09-04T19:04:57.990Z,2.85
2022-09-04T19:07:31.930Z,3.53
2022-09-04T19:10:08.638Z,3.03
2022-09-04T19:13:03.122Z,4.40
2022-09-04T19:15:36.962Z,2.40
2022-09-04T19:18:33.570Z,2.47
2022-09-04T19:21:08.846Z,3.00
2022-09-04T19:23:55.161Z,3.88
2022-09-04T19:26:49.361Z,4.00
2022-09-04T19:29:23.387Z,3.55
2022-09-04T19:31:52.218Z,2.92
2022-09-04T19:34:28.516Z,2.80
2022-09-04T19:37:19.081Z,2.78
2022-09-04T19:45:56.309Z,3.05
2022-09-04T19:46:06.480Z,2.65
2022-09-04T19:46:25.984Z,3.40
2022-09-04T19:51:28.759Z,3.63
2022-09-04T19:53:24.220Z,3.92
2022-09-04T19:55:25.378Z,3.20
2022-09-04T19:58:05.054Z,3.58
2022-09-04T20:00:43.566Z,3.65
2022-09-04T20:03:38.541Z,2.80
2022-09-04T20:06:20.123Z,2.97
2022-09-04T20:08:53.309Z,4.82
2022-09-04T20:11:45.810Z,6.15
2022-09-04T20:14:20.780Z,7.22
2022-09-04T20:17:05.598Z,7.35
2022-09-04T20:19:39.586Z,7.68
2022-09-04T20:22:37.378Z,7.55
2022-09-04T20:25:09.744Z,8.18
2022-09-04T20:27:46.814Z,8.13
2022-09-04T20:30:25.208Z,13.65
2022-09-04T20:33:11.356Z,13.75
2022-09-04T20:35:37.784Z,13.25
2022-09-04T20:38:49.049Z,10.40
2022-09-04T20:41:18.957Z,4.78
2022-09-04T20:44:04.599Z,5.10
2022-09-04T20:52:41.601Z,3.70
2022-09-04T20:53:00.035Z,2.92
2022-09-04T20:53:20.273Z,2.58
2022-09-04T20:56:02.811Z,3.28
2022-09-04T21:03:04.481Z,2.90
2022-09-04T21:03:19.145Z,2.88
2022-09-04T21:05:01.010Z,3.00
2022-09-04T21:07:36.136Z,3.10
2022-09-04T21:10:27.661Z,4.00
2022-09-04T21:13:17.031Z,2.78
2022-09-04T21:15:46.397Z,4.72
2022-09-04T21:18:34.929Z,3.45
2022-09-04T21:21:30.107Z,2.58
2022-09-04T21:24:15.447Z,6.20
2022-09-04T21:26:48.089Z,2.85
2022-09-04T21:29:52.047Z,3.00
2022-09-04T21:32:27.576Z,3.10
2022-09-04T21:35:03.718Z,2.92
2022-09-04T21:37:40.923Z,4.15
2022-09-04T21:40:49.847Z,2.90
2022-09-04T21:43:42.005Z,3.28
2022-09-04T21:46:23.613Z,3.13
2022-09-04T21:49:29.673Z,2.92
2022-09-04T21:52:34.148Z,3.03
2022-09-04T22:00:02.046Z,3.85
2022-09-04T22:02:26.722Z,2.90
2022-09-04T22:02:37.798Z,3.15
2022-09-04T22:04:25.490Z,3.42
2022-09-04T22:10:43.019Z,3.10
2022-09-04T22:13:30.397Z,3.20
2022-09-04T22:13:41.541Z,3.15
2022-09-04T22:16:05.566Z,3.08
2022-09-04T22:18:41.322Z,3.30
2022-09-04T22:21:39.282Z,3.50
2022-09-04T22:24:24.730Z,3.40
2022-09-04T22:27:37.693Z,3.70
2022-09-04T22:30:21.647Z,3.60
2022-09-04T22:33:16.239Z,3.67
2022-09-04T22:35:54.637Z,3.35
2022-09-04T22:38:36.538Z,3.53
2022-09-04T22:41:24.356Z,2.90
2022-09-04T22:43:56.737Z,3.15
2022-09-04T22:46:54.357Z,3.70
2022-09-04T22:49:52.590Z,3.30
2022-09-04T22:52:54.826Z,3.35
2022-09-04T22:56:23.496Z,3.30
2022-09-04T22:58:37.971Z,3.30
2022-09-04T23:01:18.146Z,3.20
2022-09-04T23:03:44.999Z,3.72
2022-09-04T23:07:27.988Z,3.92
2022-09-04T23:13:47.726Z,3.15
2022-09-04T23:13:57.401Z,3.20
2022-09-04T23:15:33.717Z,3.35
2022-09-04T23:18:57.068Z,3.17
2022-09-04T23:26:44.823Z,3.28
2022-09-04T23:26:53.676Z,3.45
2022-09-04T23:27:28.091Z,6.93
2022-09-04T23:30:03.962Z,3.22
2022-09-04T23:32:55.276Z,3.38
2022-09-04T23:35:45.064Z,3.17
2022-09-04T23:38:11.554Z,2.97
2022-09-04T23:40:42.000Z,4.13
2022-09-04T23:43:18.764Z,3.05
2022-09-04T23:46:08.173Z,3.20
2022-09-04T23:49:06.871Z,3.13
2022-09-04T23:51:36.337Z,3.05
2022-09-04T23:54:24.717Z,4.10
2022-09-04T23:56:57.400Z,3.95
2022-09-04T23:59:47.242Z,3.33
